Time;durP1;ratioP1;P1;durP2;ratioP2;P2;SDS_P1;SDS_P2;PMS_P1;PMS_P2;Temp;Humidity;BMP_temperature;BMP_pressure;BME280_temperature;BME280_humidity;BME280_pressure;Samples;Min_cycle;Max_cycle;Signal;HPM_P1;HPM_P2
2023/01/02 00:01:52;;;;;;;16.40;3.08;;;9.10;78.30;;;;;;4128747;28;20433;-88
2023/01/02 00:04:11;;;;;;;16.98;3.35;;;9.20;78.30;;;;;;4139153;28;20045;-87
2023/01/02 00:06:36;;;;;;;12.55;2.63;;;9.20;78.30;;;;;;4133809;28;20072;-89
2023/01/02 00:08:55;;;;;;;17.08;2.75;;;9.20;78.50;;;;;;4130094;28;21278;-89
2023/01/02 00:11:14;;;;;;;14.63;2.78;;;9.10;78.40;;;;;;4135899;28;20040;-89
2023/01/02 00:13:33;;;;;;;16.15;3.35;;;9.10;78.40;;;;;;4134681;28;20122;-89
2023/01/02 00:15:52;;;;;;;21.33;2.65;;;9.30;78.70;;;;;;4131185;28;20049;-89
2023/01/02 00:18:11;;;;;;;15.15;3.30;;;9.10;78.60;;;;;;4135536;28;20077;-88
2023/01/02 00:20:30;;;;;;;9.27;2.65;;;9.10;78.60;;;;;;4132882;28;20048;-88
2023/01/02 00:22:50;;;;;;;15.20;2.05;;;9.20;78.70;;;;;;4132563;28;20044;-88
2023/01/02 00:25:10;;;;;;;9.13;2.05;;;9.20;78.70;;;;;;4132213;28;20048;-90
2023/01/02 00:27:29;;;;;;;13.23;1.80;;;9.20;78.70;;;;;;4127803;28;20108;-90
2023/01/02 00:29:48;;;;;;;6.70;1.70;;;9.20;78.80;;;;;;4131583;28;20103;-91
2023/01/02 00:32:07;;;;;;;9.23;1.83;;;9.10;78.70;;;;;;4132974;28;20131;-89
2023/01/02 00:34:26;;;;;;;9.63;1.73;;;9.10;78.70;;;;;;4141910;28;20422;-91
2023/01/02 00:36:45;;;;;;;10.68;2.83;;;9.10;78.70;;;;;;4133189;28;20165;-91
2023/01/02 00:39:04;;;;;;;9.75;2.35;;;9.20;78.80;;;;;;4134337;28;20057;-90
2023/01/02 00:41:24;;;;;;;11.32;2.88;;;9.10;78.70;;;;;;4137226;28;20623;-89
2023/01/02 00:43:43;;;;;;;9.15;2.60;;;9.10;78.80;;;;;;4139489;28;20129;-89
2023/01/02 00:46:03;;;;;;;18.48;2.85;;;9.20;78.90;;;;;;4133213;28;20064;-90
2023/01/02 00:48:22;;;;;;;16.35;2.60;;;9.10;78.80;;;;;;4138832;28;20065;-91
2023/01/02 00:50:41;;;;;;;11.07;2.35;;;9.10;78.80;;;;;;4136464;28;20097;-90
2023/01/02 00:53:00;;;;;;;10.48;2.70;;;9.10;78.90;;;;;;4137821;28;20467;-90
2023/01/02 00:55:19;;;;;;;11.93;2.80;;;9.10;78.90;;;;;;4135692;28;20069;-91
2023/01/02 00:57:38;;;;;;;10.85;3.10;;;9.10;78.90;;;;;;4135585;28;20068;-90
2023/01/02 00:59:57;;;;;;;12.40;3.55;;;9.10;79.00;;;;;;4141306;28;20571;-90
2023/01/02 01:02:16;;;;;;;13.85;3.28;;;9.20;79.20;;;;;;4136024;28;20045;-90
2023/01/02 01:04:36;;;;;;;13.57;3.50;;;9.10;79.10;;;;;;4136616;28;20309;-89
2023/01/02 01:06:55;;;;;;;10.82;3.28;;;9.10;79.20;;;;;;4137910;28;20093;-90
2023/01/02 01:09:14;;;;;;;12.80;3.15;;;9.10;79.20;;;;;;4132692;28;20096;-90
2023/01/02 01:11:33;;;;;;;13.48;3.13;;;9.10;79.30;;;;;;4148587;28;20028;-89
2023/01/02 01:13:52;;;;;;;11.93;3.50;;;9.10;79.30;;;;;;4135688;28;20123;-91
2023/01/02 01:16:14;;;;;;;15.50;3.63;;;9.10;79.40;;;;;;4136646;28;20053;-89
2023/01/02 01:18:34;;;;;;;9.38;3.13;;;9.30;79.60;;;;;;4138956;28;20458;-91
2023/01/02 01:20:54;;;;;;;16.17;3.67;;;9.20;79.60;;;;;;4140070;28;20480;-90
2023/01/02 01:23:13;;;;;;;11.15;3.22;;;9.10;79.50;;;;;;4136338;28;20044;-90
2023/01/02 01:25:14;;;;;;;13.45;3.58;;;9.10;79.60;;;;;;4139936;28;20030;-90
2023/01/02 01:27:15;;;;;;;24.30;3.78;;;9.10;79.60;;;;;;4136990;28;20385;-90
2023/01/02 01:29:16;;;;;;;12.98;3.70;;;9.10;79.70;;;;;;4133667;28;20022;-88
2023/01/02 01:31:16;;;;;;;11.90;3.13;;;9.20;79.80;;;;;;4121658;28;20030;-89
2023/01/02 01:33:17;;;;;;;10.88;3.13;;;9.20;79.80;;;;;;4128143;28;20042;-90
2023/01/02 01:35:18;;;;;;;9.07;3.17;;;9.30;79.90;;;;;;4132163;28;20060;-87
2023/01/02 01:37:18;;;;;;;11.40;3.17;;;9.20;79.80;;;;;;4115438;28;20027;-89
2023/01/02 01:39:19;;;;;;;10.07;3.20;;;9.30;79.90;;;;;;4115431;28;20055;-92
2023/01/02 01:41:24;;;;;;;9.10;2.80;;;9.30;79.90;;;;;;4126433;28;20263;-88
2023/01/02 01:43:57;;;;;;;10.45;3.00;;;9.30;79.90;;;;;;4165907;28;20072;-91
2023/01/02 01:45:59;;;;;;;10.73;3.33;;;9.20;80.10;;;;;;4068372;29;20103;-89
2023/01/02 01:48:00;;;;;;;8.98;2.63;;;9.20;79.80;;;;;;4101706;28;20140;-91
2023/01/02 01:50:07;;;;;;;9.43;2.95;;;9.30;79.90;;;;;;4127537;28;20596;-90
2023/01/02 01:52:12;;;;;;;10.48;2.45;;;9.30;79.90;;;;;;4129767;28;20033;-90
2023/01/02 01:54:16;;;;;;;11.38;2.75;;;9.30;79.90;;;;;;4119209;28;20478;-89
2023/01/02 01:56:17;;;;;;;9.10;2.67;;;9.20;79.90;;;;;;4116447;28;20046;-90
2023/01/02 01:58:25;;;;;;;7.00;2.53;;;9.20;79.90;;;;;;4113323;28;20034;-90
2023/01/02 02:00:26;;;;;;;11.10;2.85;;;9.20;80.00;;;;;;4116511;28;20026;-89
2023/01/02 02:02:28;;;;;;;9.93;2.70;;;9.30;80.00;;;;;;4129899;28;20049;-90
2023/01/02 02:04:29;;;;;;;9.25;2.40;;;9.20;80.00;;;;;;4150627;28;20132;-89
2023/01/02 02:06:30;;;;;;;10.38;2.58;;;9.30;80.00;;;;;;4116470;28;20417;-91
2023/01/02 02:08:52;;;;;;;9.60;2.67;;;9.30;80.10;;;;;;4134049;28;20026;-90
2023/01/02 02:11:13;;;;;;;9.43;2.00;;;9.20;80.00;;;;;;4131786;28;20041;-90
2023/01/02 02:13:34;;;;;;;14.23;2.67;;;9.20;80.00;;;;;;4135513;28;20064;-88
2023/01/02 02:16:14;;;;;;;6.32;2.30;;;9.20;80.00;;;;;;4133124;28;20034;-88
2023/01/02 02:18:55;;;;;;;13.20;2.53;;;9.20;80.10;;;;;;4130342;28;20113;-89
2023/01/02 02:21:19;;;;;;;9.32;2.22;;;9.20;80.00;;;;;;4145156;28;20029;-88
2023/01/02 02:23:40;;;;;;;8.88;2.35;;;9.30;79.90;;;;;;4119268;28;20136;-91
2023/01/02 02:26:29;;;;;;;8.45;2.42;;;9.20;80.70;;;;;;4131763;28;20036;-88
2023/01/02 02:29:27;;;;;;;9.95;2.85;;;9.20;80.00;;;;;;4143199;28;20040;-87
2023/01/02 02:32:04;;;;;;;11.75;2.83;;;9.20;80.00;;;;;;4133584;28;20038;-90
2023/01/02 02:34:46;;;;;;;9.25;2.30;;;9.20;79.90;;;;;;4134388;28;20034;-91
2023/01/02 02:37:31;;;;;;;10.60;2.55;;;9.20;80.00;;;;;;4132290;28;20041;-91
2023/01/02 02:39:58;;;;;;;9.73;2.25;;;9.20;79.90;;;;;;4133356;28;20519;-91
2023/01/02 02:42:27;;;;;;;10.95;2.17;;;9.20;80.00;;;;;;4137180;28;20037;-90
2023/01/02 02:45:13;;;;;;;11.18;2.78;;;9.20;80.70;;;;;;4132183;28;20145;-91
2023/01/02 02:47:41;;;;;;;10.43;2.88;;;9.20;80.00;;;;;;4132380;28;20033;-88
2023/01/02 02:50:09;;;;;;;8.07;2.60;;;9.20;80.00;;;;;;4147822;28;20042;-90
2023/01/02 02:52:57;;;;;;;10.23;2.15;;;9.20;80.00;;;;;;4135472;28;20771;-91
2023/01/02 02:55:56;;;;;;;5.38;2.08;;;9.20;80.20;;;;;;4138114;28;20037;-90
2023/01/02 02:58:19;;;;;;;8.95;2.70;;;9.20;80.20;;;;;;4132903;28;20048;-90
2023/01/02 03:00:39;;;;;;;9.10;2.33;;;9.20;80.00;;;;;;4132596;28;20025;-91
2023/01/02 03:03:00;;;;;;;7.32;2.50;;;9.20;80.10;;;;;;4131998;28;20026;-91
2023/01/02 03:05:38;;;;;;;7.78;2.85;;;9.30;80.20;;;;;;4135741;28;20113;-89
2023/01/02 03:08:09;;;;;;;9.10;2.30;;;9.20;80.20;;;;;;4136880;28;20030;-92
2023/01/02 03:10:36;;;;;;;9.18;2.97;;;9.20;80.20;;;;;;4133181;28;20084;-88
2023/01/02 03:13:17;;;;;;;12.68;2.97;;;9.20;80.20;;;;;;4133757;28;20050;-91
2023/01/02 03:15:53;;;;;;;8.32;2.50;;;9.20;80.30;;;;;;4130891;28;20033;-88
2023/01/02 03:18:30;;;;;;;7.65;2.83;;;9.30;80.30;;;;;;4137506;28;20050;-88
2023/01/02 03:21:18;;;;;;;6.70;2.97;;;9.20;80.20;;;;;;4150606;28;20030;-87
2023/01/02 03:23:45;;;;;;;8.50;2.65;;;9.20;80.20;;;;;;4136787;28;20073;-91
2023/01/02 03:26:06;;;;;;;8.82;2.88;;;9.20;80.10;;;;;;4133213;28;20061;-89
2023/01/02 03:28:28;;;;;;;8.68;2.47;;;9.10;80.70;;;;;;4137857;28;20034;-90
2023/01/02 03:30:55;;;;;;;8.40;2.67;;;9.20;80.10;;;;;;4132152;28;20030;-90
2023/01/02 03:33:21;;;;;;;7.10;2.50;;;9.10;80.10;;;;;;4133486;28;20061;-91
2023/01/02 03:35:55;;;;;;;6.50;2.60;;;9.10;80.10;;;;;;4133071;28;20041;-91
2023/01/02 03:38:23;;;;;;;7.82;2.30;;;9.10;80.20;;;;;;4135421;28;20033;-89
2023/01/02 03:40:49;;;;;;;7.45;2.28;;;9.10;80.20;;;;;;4129507;28;20030;-90
2023/01/02 03:43:15;;;;;;;5.82;2.03;;;9.10;80.20;;;;;;4133425;28;20594;-88
2023/01/02 03:45:39;;;;;;;10.35;2.33;;;9.20;80.30;;;;;;4138456;28;20029;-90
2023/01/02 03:48:15;;;;;;;13.63;2.72;;;9.10;80.20;;;;;;4137829;28;20029;-90
2023/01/02 03:51:00;;;;;;;11.18;2.22;;;9.10;80.20;;;;;;4149817;28;20630;-90
2023/01/02 03:53:22;;;;;;;8.45;2.40;;;9.10;80.20;;;;;;4134695;28;20030;-90
2023/01/02 03:56:06;;;;;;;5.60;2.22;;;9.10;80.10;;;;;;4136911;28;21507;-91
2023/01/02 03:58:53;;;;;;;11.05;3.03;;;9.10;80.10;;;;;;4138728;28;20045;-91
2023/01/02 04:01:48;;;;;;;12.73;2.85;;;9.10;80.10;;;;;;4151788;28;20056;-91
2023/01/02 04:04:34;;;;;;;10.52;2.85;;;9.10;80.20;;;;;;4132425;28;20045;-92
2023/01/02 04:07:01;;;;;;;13.85;3.53;;;9.10;80.00;;;;;;4148357;28;20571;-91
2023/01/02 04:09:25;;;;;;;8.80;3.65;;;9.10;80.00;;;;;;4138082;28;20088;-90
2023/01/02 04:11:49;;;;;;;9.00;3.43;;;9.00;80.00;;;;;;4138993;28;20052;-92
2023/01/02 04:14:20;;;;;;;9.50;3.55;;;9.00;80.00;;;;;;4156289;28;20103;-89
2023/01/02 04:16:43;;;;;;;11.23;3.72;;;9.00;80.10;;;;;;4135358;28;20041;-91
2023/01/02 04:19:15;;;;;;;11.10;3.70;;;9.00;80.20;;;;;;4135717;28;20044;-89
2023/01/02 04:21:37;;;;;;;12.63;3.78;;;9.00;80.30;;;;;;4131032;28;20069;-91
2023/01/02 04:24:09;;;;;;;11.40;4.05;;;9.00;80.40;;;;;;4150067;28;20487;-88
2023/01/02 04:26:42;;;;;;;11.60;4.47;;;8.90;80.50;;;;;;4136348;28;20100;-89
2023/01/02 04:29:02;;;;;;;9.50;3.65;;;8.90;80.50;;;;;;4134089;28;20044;-90
2023/01/02 04:31:36;;;;;;;7.70;3.80;;;8.90;80.40;;;;;;4130548;28;20310;-89
2023/01/02 04:33:59;;;;;;;11.25;3.65;;;8.90;80.50;;;;;;4146959;28;20037;-91
2023/01/02 04:36:18;;;;;;;11.38;3.92;;;8.90;80.50;;;;;;4137462;28;20044;-90
2023/01/02 04:38:40;;;;;;;7.90;3.08;;;9.00;80.70;;;;;;4140386;28;20484;-89
2023/01/02 04:40:59;;;;;;;9.48;4.10;;;9.00;80.70;;;;;;4132889;28;20109;-89
2023/01/02 04:43:20;;;;;;;8.48;3.75;;;9.00;80.90;;;;;;4145390;28;20055;-90
2023/01/02 04:45:39;;;;;;;8.43;3.70;;;8.80;80.80;;;;;;4136093;28;20181;-91
2023/01/02 04:47:58;;;;;;;8.65;3.70;;;8.90;80.90;;;;;;4133264;28;20080;-90
2023/01/02 04:50:17;;;;;;;5.50;3.47;;;8.80;81.00;;;;;;4136328;28;20886;-91
2023/01/02 04:52:36;;;;;;;7.13;4.25;;;8.80;81.00;;;;;;4136331;28;20088;-92
2023/01/02 04:54:56;;;;;;;9.65;4.72;;;8.90;81.10;;;;;;4136425;28;20053;-91
2023/01/02 04:57:15;;;;;;;7.95;4.55;;;8.90;81.20;;;;;;4135556;28;20085;-90
2023/01/02 04:59:34;;;;;;;13.27;4.20;;;8.90;81.20;;;;;;4143745;28;20096;-88
2023/01/02 05:01:54;;;;;;;6.82;4.03;;;8.90;81.30;;;;;;4160765;28;20053;-90
2023/01/02 05:04:13;;;;;;;11.75;4.53;;;8.90;81.20;;;;;;4139991;28;20133;-90
2023/01/02 05:06:32;;;;;;;7.40;4.20;;;8.90;81.30;;;;;;4140354;28;20068;-89
2023/01/02 05:08:51;;;;;;;15.55;4.55;;;8.90;81.30;;;;;;4137598;28;20037;-89
2023/01/02 05:11:17;;;;;;;10.70;4.63;;;8.90;81.30;;;;;;4132480;28;20099;-91
2023/01/02 05:13:37;;;;;;;7.88;3.90;;;9.00;81.40;;;;;;4150246;28;20130;-91
2023/01/02 05:15:56;;;;;;;7.47;4.28;;;9.00;81.40;;;;;;4133485;28;20726;-90
2023/01/02 05:18:16;;;;;;;9.73;4.07;;;8.90;81.40;;;;;;4139238;28;20104;-89
2023/01/02 05:20:35;;;;;;;5.28;3.40;;;9.00;81.50;;;;;;4134522;28;20045;-88
2023/01/02 05:25:34;;;;;;;10.23;3.22;;;8.90;81.60;;;;;;4136617;28;20041;-90
2023/01/02 05:27:54;;;;;;;10.98;3.10;;;8.90;81.60;;;;;;4130883;28;20057;-90
2023/01/02 05:30:13;;;;;;;6.20;3.38;;;9.00;81.70;;;;;;4134312;28;20087;-88
2023/01/02 05:32:32;;;;;;;6.15;3.03;;;8.90;81.70;;;;;;4130738;28;20052;-90
2023/01/02 05:34:51;;;;;;;7.97;3.05;;;8.90;81.70;;;;;;4137440;28;20093;-88
2023/01/02 05:37:10;;;;;;;6.72;2.65;;;9.00;81.70;;;;;;4130675;28;20104;-88
2023/01/02 05:39:29;;;;;;;10.63;2.67;;;8.90;81.70;;;;;;4135576;28;20052;-90
2023/01/02 05:41:48;;;;;;;5.28;2.28;;;8.90;81.80;;;;;;4128983;28;20585;-88
2023/01/02 05:44:09;;;;;;;6.60;2.58;;;8.90;81.80;;;;;;4133411;28;20032;-88
2023/01/02 05:46:28;;;;;;;6.00;2.10;;;8.90;81.80;;;;;;4135432;28;20084;-90
2023/01/02 05:48:47;;;;;;;5.53;1.80;;;9.00;81.40;;;;;;4135606;28;20037;-89
2023/01/02 05:51:08;;;;;;;3.08;1.80;;;8.90;81.80;;;;;;4130803;28;20137;-89
2023/01/02 05:53:28;;;;;;;3.28;1.90;;;8.90;81.80;;;;;;4129409;28;20052;-88
2023/01/02 05:55:47;;;;;;;5.63;2.35;;;8.90;81.90;;;;;;4131232;28;21417;-90
2023/01/02 05:58:06;;;;;;;6.28;2.20;;;9.00;82.00;;;;;;4135518;28;20072;-87
2023/01/02 06:00:25;;;;;;;4.07;2.00;;;8.90;82.00;;;;;;4133626;28;20049;-89
2023/01/02 06:02:44;;;;;;;5.10;2.00;;;9.00;82.10;;;;;;4134427;28;20121;-88
2023/01/02 06:05:04;;;;;;;2.55;1.65;;;8.90;82.00;;;;;;4133358;28;20133;-88
2023/01/02 06:07:23;;;;;;;4.80;2.08;;;8.90;82.00;;;;;;4130383;28;20159;-89
2023/01/02 06:09:42;;;;;;;5.22;2.50;;;8.90;82.00;;;;;;4136067;28;20088;-90
2023/01/02 06:12:01;;;;;;;4.43;2.42;;;9.10;82.20;;;;;;4130075;28;20068;-89
2023/01/02 06:14:22;;;;;;;4.47;2.20;;;8.90;82.10;;;;;;4133057;28;20052;-89
2023/01/02 06:16:42;;;;;;;4.50;2.20;;;9.00;82.20;;;;;;4128297;28;20069;-89
2023/01/02 06:19:01;;;;;;;5.45;2.30;;;8.90;82.10;;;;;;4131620;28;20089;-90
2023/01/02 06:21:21;;;;;;;3.40;2.25;;;9.00;82.20;;;;;;4132819;28;20150;-90
2023/01/02 06:23:41;;;;;;;3.38;2.15;;;9.00;82.20;;;;;;4129320;28;20125;-90
2023/01/02 06:26:06;;;;;;;4.32;2.05;;;9.00;82.20;;;;;;4141186;28;20048;-89
2023/01/02 06:28:26;;;;;;;5.03;2.15;;;9.00;83.00;;;;;;4147306;28;20075;-89
2023/01/02 06:30:45;;;;;;;3.10;2.10;;;9.10;82.30;;;;;;4133721;28;20041;-90
2023/01/02 06:33:04;;;;;;;4.60;2.30;;;9.00;82.30;;;;;;4133619;28;20083;-88
2023/01/02 06:35:23;;;;;;;4.28;2.30;;;9.10;82.40;;;;;;4134816;28;20045;-88
2023/01/02 06:37:43;;;;;;;3.63;2.38;;;9.00;82.30;;;;;;4137352;28;20044;-87
2023/01/02 06:40:03;;;;;;;5.80;2.58;;;9.00;82.40;;;;;;4157355;28;20286;-88
2023/01/02 06:42:22;;;;;;;6.35;2.20;;;9.10;82.50;;;;;;4149523;28;20096;-88
2023/01/02 06:44:41;;;;;;;3.25;2.50;;;9.20;82.60;;;;;;4145878;28;20080;-88
2023/01/02 06:47:00;;;;;;;3.42;2.35;;;9.10;82.50;;;;;;4139884;28;20161;-90
2023/01/02 06:49:19;;;;;;;5.90;3.70;;;9.10;82.50;;;;;;4147796;28;20480;-90
2023/01/02 06:51:38;;;;;;;7.63;4.07;;;9.10;82.50;;;;;;4128570;28;20080;-90
2023/01/02 06:53:58;;;;;;;6.10;4.00;;;9.10;82.60;;;;;;4133263;28;20045;-91
2023/01/02 06:56:19;;;;;;;9.65;4.50;;;9.20;82.70;;;;;;4136928;28;20104;-91
2023/01/02 06:58:38;;;;;;;9.07;4.63;;;9.20;82.80;;;;;;4140458;28;20095;-92
2023/01/02 07:01:06;;;;;;;10.25;5.15;;;9.20;82.80;;;;;;4138489;28;20064;-88
2023/01/02 07:03:26;;;;;;;9.45;5.53;;;9.10;82.80;;;;;;4134343;28;20080;-89
2023/01/02 07:05:45;;;;;;;9.93;6.45;;;9.20;82.90;;;;;;4134081;28;20041;-91
2023/01/02 07:08:05;;;;;;;11.35;6.63;;;9.30;83.30;;;;;;4135813;28;20589;-91
2023/01/02 07:10:26;;;;;;;13.80;7.32;;;9.20;83.30;;;;;;4136189;28;20033;-90
2023/01/02 07:12:46;;;;;;;14.55;7.03;;;9.20;83.30;;;;;;4130549;28;20096;-90
2023/01/02 07:15:05;;;;;;;11.18;7.53;;;9.30;83.60;;;;;;4134409;28;20528;-91
2023/01/02 07:17:25;;;;;;;13.57;7.80;;;9.30;83.60;;;;;;4131474;28;20433;-89
2023/01/02 07:19:44;;;;;;;12.32;7.07;;;9.30;83.60;;;;;;4133309;28;20048;-91
2023/01/02 07:22:03;;;;;;;16.75;7.40;;;9.40;83.70;;;;;;4136261;28;20085;-90
2023/01/02 07:24:22;;;;;;;10.65;6.93;;;9.30;83.80;;;;;;4136890;28;20072;-91
2023/01/02 07:26:41;;;;;;;13.77;8.23;;;9.40;83.90;;;;;;4130002;28;20144;-89
2023/01/02 07:29:01;;;;;;;11.82;7.05;;;9.40;84.20;;;;;;4135952;28;20053;-88
2023/01/02 07:31:21;;;;;;;14.07;7.75;;;9.40;84.10;;;;;;4132175;28;20041;-89
2023/01/02 07:33:41;;;;;;;13.13;7.70;;;9.50;84.40;;;;;;4132384;28;20049;-91
2023/01/02 07:36:03;;;;;;;11.20;6.70;;;9.50;84.40;;;;;;4130453;28;20033;-89
2023/01/02 07:38:22;;;;;;;9.77;6.85;;;9.60;84.40;;;;;;4130067;28;20097;-91
2023/01/02 07:40:41;;;;;;;12.32;7.00;;;9.50;84.40;;;;;;4132320;28;20040;-90
2023/01/02 07:43:00;;;;;;;13.98;7.75;;;9.70;84.60;;;;;;4127503;28;20077;-91
2023/01/02 07:45:20;;;;;;;15.30;7.57;;;9.70;84.50;;;;;;4136651;28;20044;-91
2023/01/02 07:47:39;;;;;;;11.00;7.15;;;9.70;84.60;;;;;;4137951;28;20053;-92
2023/01/02 07:49:58;;;;;;;15.68;7.95;;;9.60;84.50;;;;;;4136248;28;20250;-90
2023/01/02 07:52:17;;;;;;;15.25;7.57;;;9.80;84.60;;;;;;4137843;28;20053;-91
2023/01/02 07:54:37;;;;;;;14.40;8.38;;;9.70;84.60;;;;;;4137586;28;20040;-90
2023/01/02 07:56:56;;;;;;;16.30;8.40;;;9.80;84.60;;;;;;4132538;28;20076;-92
2023/01/02 07:59:15;;;;;;;15.50;8.88;;;9.90;84.80;;;;;;4132993;28;20048;-90
2023/01/02 08:01:34;;;;;;;16.83;8.70;;;9.90;84.80;;;;;;4133129;28;20966;-89
2023/01/02 08:03:53;;;;;;;16.80;8.43;;;9.80;84.80;;;;;;4137581;28;20120;-88
2023/01/02 08:06:14;;;;;;;18.73;8.48;;;9.80;84.80;;;;;;4135013;28;20532;-90
2023/01/02 08:08:35;;;;;;;16.23;8.38;;;9.90;84.80;;;;;;4135798;28;20583;-92
2023/01/02 08:10:54;;;;;;;16.58;8.70;;;9.90;84.80;;;;;;4133914;28;20048;-91
2023/01/02 08:13:13;;;;;;;21.55;8.68;;;9.90;84.80;;;;;;4130755;28;20028;-93
2023/01/02 08:15:33;;;;;;;19.73;9.73;;;9.90;84.80;;;;;;4140843;28;20049;-90
2023/01/02 08:17:54;;;;;;;19.10;9.30;;;10.10;85.40;;;;;;4144369;28;20072;-92
2023/01/02 08:20:13;;;;;;;23.35;10.13;;;9.90;85.10;;;;;;4138149;28;20037;-90
2023/01/02 08:22:33;;;;;;;20.50;9.88;;;10.00;85.10;;;;;;4136741;28;20057;-89
2023/01/02 08:24:52;;;;;;;20.25;9.57;;;9.90;85.10;;;;;;4141971;28;20088;-91
2023/01/02 08:27:11;;;;;;;18.60;9.55;;;10.00;85.30;;;;;;4135209;28;21049;-92
2023/01/02 08:29:31;;;;;;;19.20;9.45;;;10.00;85.20;;;;;;4127354;28;20129;-89
2023/01/02 08:31:50;;;;;;;17.35;9.30;;;10.00;85.20;;;;;;4133960;28;20057;-90
2023/01/02 08:34:13;;;;;;;21.20;10.07;;;10.00;85.10;;;;;;4137915;28;20053;-92
2023/01/02 08:36:32;;;;;;;18.38;9.52;;;10.10;85.10;;;;;;4124765;28;20579;-90
2023/01/02 08:38:51;;;;;;;20.58;9.27;;;10.10;85.00;;;;;;4140137;28;20048;-92
2023/01/02 08:41:10;;;;;;;21.15;10.68;;;10.10;85.00;;;;;;4138174;28;20041;-90
2023/01/02 08:43:33;;;;;;;21.90;10.20;;;10.20;85.00;;;;;;4134553;28;20124;-89
2023/01/02 08:45:54;;;;;;;18.73;10.77;;;10.10;85.00;;;;;;4131727;28;20053;-91
2023/01/02 08:48:13;;;;;;;21.10;10.32;;;10.30;85.10;;;;;;4143003;28;20080;-89
2023/01/02 08:50:32;;;;;;;17.67;10.00;;;10.20;85.00;;;;;;4140890;28;20528;-90
2023/01/02 08:52:51;;;;;;;25.05;10.45;;;10.40;85.00;;;;;;4137097;28;20510;-91
2023/01/02 08:55:12;;;;;;;17.30;9.00;;;10.20;85.00;;;;;;4140079;28;20096;-89
2023/01/02 08:57:31;;;;;;;17.95;9.00;;;10.30;84.90;;;;;;4140029;28;20117;-89
2023/01/02 08:59:50;;;;;;;14.88;8.60;;;10.20;84.90;;;;;;4141033;28;20037;-91
2023/01/02 09:02:13;;;;;;;14.48;7.63;;;10.20;84.90;;;;;;4138073;28;20113;-90
2023/01/02 09:04:33;;;;;;;13.43;6.68;;;10.20;84.80;;;;;;4140062;28;20120;-92
2023/01/02 09:06:52;;;;;;;11.98;7.07;;;10.40;84.90;;;;;;4130779;28;20052;-91
2023/01/02 09:08:55;;;;;;;10.98;6.15;;;10.20;84.80;;;;;;4136388;28;20026;-89
2023/01/02 09:10:56;;;;;;;12.50;6.60;;;10.30;84.80;;;;;;4138480;28;20030;-91
2023/01/02 09:12:58;;;;;;;11.55;6.72;;;10.30;84.90;;;;;;4137069;28;20114;-89
2023/01/02 09:14:58;;;;;;;12.18;6.20;;;10.30;84.90;;;;;;4140305;28;20021;-92
2023/01/02 09:16:59;;;;;;;11.57;6.10;;;10.30;84.80;;;;;;4137536;28;20038;-88
2023/01/02 09:19:00;;;;;;;10.40;6.68;;;10.30;84.80;;;;;;4141192;28;20034;-92
2023/01/02 09:21:02;;;;;;;11.25;6.00;;;10.30;84.90;;;;;;4136221;28;20033;-89
2023/01/02 09:23:02;;;;;;;11.43;5.88;;;10.30;84.70;;;;;;4122894;28;20037;-91
2023/01/02 09:25:03;;;;;;;12.63;6.45;;;10.40;84.90;;;;;;4134168;28;20037;-90
2023/01/02 09:27:04;;;;;;;9.10;5.43;;;10.30;84.70;;;;;;4139450;28;20063;-90
2023/01/02 09:29:05;;;;;;;8.20;5.22;;;10.40;84.80;;;;;;4140469;28;20038;-92
2023/01/02 09:31:11;;;;;;;9.45;5.78;;;10.30;84.60;;;;;;4136838;28;20037;-90
2023/01/02 09:33:12;;;;;;;10.32;5.13;;;10.50;84.70;;;;;;4141660;28;20033;-92
2023/01/02 09:35:14;;;;;;;8.00;4.28;;;10.40;84.70;;;;;;4121485;28;20034;-92
2023/01/02 09:37:16;;;;;;;8.68;3.92;;;10.30;84.50;;;;;;4152681;28;20105;-93
2023/01/02 09:39:17;;;;;;;7.65;3.85;;;10.30;84.40;;;;;;4154336;28;20040;-92
2023/01/02 09:41:42;;;;;;;7.35;3.50;;;10.40;84.40;;;;;;4118756;28;20577;-93
2023/01/02 09:43:46;;;;;;;7.63;3.80;;;10.30;84.30;;;;;;4127938;28;20048;-91
2023/01/02 09:45:48;;;;;;;6.75;3.85;;;10.30;84.00;;;;;;4136838;28;20033;-90
2023/01/02 09:47:51;;;;;;;5.70;3.50;;;10.30;84.00;;;;;;4134415;28;20060;-91
2023/01/02 09:49:55;;;;;;;6.05;3.75;;;10.50;84.70;;;;;;4136022;28;20453;-93
2023/01/02 09:51:56;;;;;;;7.63;4.78;;;10.40;83.90;;;;;;4139038;28;20022;-92
2023/01/02 09:53:57;;;;;;;9.98;5.78;;;10.40;83.90;;;;;;4150267;28;20041;-89
2023/01/02 09:56:08;;;;;;;;;;;10.30;83.80;;;;;;4140627;28;21158;-92
2023/01/02 09:58:42;;;;;;;10.55;5.68;;;10.30;84.00;;;;;;4134111;28;20342;-90
2023/01/02 10:00:46;;;;;;;8.15;5.30;;;10.30;83.50;;;;;;4150306;28;20029;-92
2023/01/02 10:02:55;;;;;;;12.82;6.45;;;10.30;83.50;;;;;;4118703;28;20034;-92
2023/01/02 10:05:26;;;;;;;11.35;6.78;;;10.30;83.90;;;;;;4134828;28;20057;-92
2023/01/02 10:07:44;;;;;;;12.10;6.68;;;10.20;83.50;;;;;;4140314;28;20066;-89
2023/01/02 10:10:11;;;;;;;13.52;7.32;;;10.20;83.50;;;;;;4118497;28;20034;-91
2023/01/02 10:12:28;;;;;;;10.02;6.43;;;10.20;83.50;;;;;;4132428;28;20039;-90
2023/01/02 10:14:37;;;;;;;9.75;5.85;;;10.30;83.50;;;;;;4132715;28;20119;-91
2023/01/02 10:16:43;;;;;;;10.70;5.95;;;10.20;83.30;;;;;;4129746;28;20030;-89
2023/01/02 10:18:48;;;;;;;31.85;15.95;;;10.20;83.20;;;;;;4135392;28;20108;-92
2023/01/02 10:21:05;;;;;;;18.40;9.95;;;10.10;83.00;;;;;;4115889;28;20145;-92
2023/01/02 10:23:14;;;;;;;13.07;7.50;;;10.10;82.90;;;;;;4150691;28;20073;-92
2023/01/02 10:25:18;;;;;;;12.85;7.20;;;10.10;82.40;;;;;;4135518;28;20034;-89
2023/01/02 10:27:25;;;;;;;14.00;7.75;;;10.00;82.10;;;;;;4123559;28;20459;-88
2023/01/02 10:29:30;;;;;;;15.52;8.13;;;10.10;81.90;;;;;;4139309;28;20026;-90
2023/01/02 10:31:47;;;;;;;12.68;7.10;;;10.00;81.70;;;;;;4132427;28;20030;-88
2023/01/02 10:33:55;;;;;;;9.13;5.78;;;9.90;81.60;;;;;;4117900;28;20034;-91
2023/01/02 10:36:00;;;;;;;6.68;4.18;;;9.80;81.40;;;;;;4133919;28;20026;-91
2023/01/02 10:38:02;;;;;;;7.68;3.35;;;9.80;81.30;;;;;;4135133;28;20030;-90
2023/01/02 10:40:03;;;;;;;4.85;2.97;;;9.80;81.20;;;;;;4132537;28;20200;-90
2023/01/02 10:42:05;;;;;;;4.32;2.20;;;9.70;81.20;;;;;;4135407;28;20040;-89
2023/01/02 10:44:25;;;;;;;4.50;2.20;;;9.60;81.10;;;;;;4136853;28;20136;-89
2023/01/02 10:46:34;;;;;;;3.33;1.77;;;9.60;81.40;;;;;;4146939;28;20291;-91
2023/01/02 10:48:37;;;;;;;4.15;2.28;;;9.60;81.20;;;;;;4139435;28;20032;-91
2023/01/02 10:50:47;;;;;;;3.57;2.00;;;9.40;81.10;;;;;;4130072;28;20024;-90
2023/01/02 10:53:08;;;;;;;4.78;2.20;;;9.40;81.20;;;;;;4138000;28;20052;-91
2023/01/02 10:55:09;;;;;;;2.53;1.77;;;9.40;81.40;;;;;;4137443;28;20042;-90
2023/01/02 10:57:19;;;;;;;3.38;1.83;;;9.40;81.30;;;;;;4136568;28;20044;-91
2023/01/02 10:59:23;;;;;;;4.22;1.75;;;9.30;81.40;;;;;;4136894;28;20030;-91
2023/01/02 11:01:24;;;;;;;3.15;1.52;;;9.40;81.70;;;;;;4153153;28;20014;-91
2023/01/02 11:03:24;;;;;;;1.65;1.17;;;9.20;81.70;;;;;;4135423;28;20053;-92
2023/01/02 11:05:30;;;;;;;2.47;1.30;;;9.10;81.60;;;;;;4120904;28;20034;-92
2023/01/02 11:07:33;;;;;;;2.50;1.25;;;9.10;81.60;;;;;;4136540;28;20084;-92
2023/01/02 11:09:37;;;;;;;3.35;1.33;;;9.10;81.70;;;;;;4146488;28;20029;-91
2023/01/02 11:11:48;;;;;;;1.88;1.17;;;9.20;81.90;;;;;;4134179;28;20022;-91
2023/01/02 11:13:54;;;;;;;3.22;1.33;;;9.10;82.00;;;;;;4138558;28;20029;-90
2023/01/02 11:15:58;;;;;;;1.90;1.50;;;9.00;81.90;;;;;;4129469;28;20037;-92
2023/01/02 11:18:01;;;;;;;3.80;1.50;;;9.10;82.10;;;;;;4143009;28;20033;-92
2023/01/02 11:20:02;;;;;;;2.80;1.30;;;9.10;82.10;;;;;;4126917;28;20042;-89
2023/01/02 11:22:03;;;;;;;2.50;1.73;;;9.00;82.20;;;;;;4138471;28;20063;-91
2023/01/02 11:24:13;;;;;;;3.33;1.58;;;9.00;82.20;;;;;;4126662;28;20144;-90
2023/01/02 11:26:25;;;;;;;2.70;1.58;;;8.90;82.20;;;;;;4129948;28;20102;-91
2023/01/02 11:28:30;;;;;;;2.35;1.60;;;8.90;82.30;;;;;;4137109;28;20302;-90
2023/01/02 11:30:44;;;;;;;2.50;1.77;;;8.90;82.40;;;;;;4144656;28;20022;-89
2023/01/02 11:32:45;;;;;;;3.78;2.08;;;8.90;82.50;;;;;;4129097;28;20042;-89
2023/01/02 11:34:56;;;;;;;3.08;1.73;;;8.90;82.50;;;;;;4114421;28;21763;-90
2023/01/02 11:37:16;;;;;;;3.03;2.00;;;8.90;82.60;;;;;;4130537;28;20030;-88
2023/01/02 11:39:23;;;;;;;4.97;2.25;;;8.90;82.60;;;;;;4127426;28;20879;-89
2023/01/02 11:44:17;;;;;;;2.78;1.45;;;8.80;82.60;;;;;;4131241;28;20742;-90
2023/01/02 11:46:38;;;;;;;2.92;1.77;;;8.90;82.60;;;;;;4134938;28;20056;-89
2023/01/02 11:48:39;;;;;;;3.75;1.98;;;8.90;82.90;;;;;;4113649;28;20027;-89
2023/01/02 11:50:42;;;;;;;3.55;2.00;;;8.80;82.70;;;;;;4132335;28;20706;-93
2023/01/02 11:53:02;;;;;;;;;;;8.90;82.70;;;;;;4130481;28;20072;-88
2023/01/02 11:55:12;;;;;;;4.15;1.77;;;8.80;82.90;;;;;;4150286;28;19920;-87
2023/01/02 11:57:49;;;;;;;4.57;1.63;;;8.90;82.40;;;;;;4144217;28;21106;-87
2023/01/02 11:59:52;;;;;;;3.80;1.55;;;8.80;82.40;;;;;;4111995;28;20123;-91
2023/01/02 12:02:18;;;;;;;1.95;1.50;;;8.90;82.40;;;;;;4128723;28;20036;-88
2023/01/02 12:04:37;;;;;;;2.00;1.50;;;8.80;82.40;;;;;;4073509;28;20039;-87
2023/01/02 12:06:58;;;;;;;7.18;2.40;;;8.90;82.40;;;;;;4115274;28;20437;-85